Terminal Aerodrome Forecast
Issued by NWS Charleston, SC

Home | Current Version | Previous Version | Text Only | Print | Product List | Glossary On
Versions: 1 2 3 4 5 6 7 8 9 10 11 12 13 14 15 16 17
000
FTUS42 KCHS 191400 AAA
TAFSAV
TAF AMD
KSAV 191412Z 1914/2012 01009KT 4SM -RA BR BKN004 OVC008
     FM191700 02010KT 6SM -SHRA SCT005 OVC007
     FM200200 01012G17KT P6SM VCSH SCT004 OVC007=

USA.gov is the U.S. government's official web portal to all federal, state and local government web resources and services.